[Jeden Donnerstag | 19:00z - 21:00z | EDDS] Stuttgart Thursday

Zu Eventkalender hinzugefügt: 586 Daten

Jan Hergeth

1419731
RG Frankfurt - Leitung
RG Frankfurt - Mentor
In weniger als 50 Minuten geht es wieder los! Am Stuttgart Donnerstag freuen wir uns mit voller Besetzung auf euch! :)
 

Cedric Mohler

1452943
RG Frankfurt - NAV
RG Frankfurt - Mentor
ATD - Prüfer
Stuttgart ist seit 9 Minuten voll besetzt für euch. Wir freuen uns auf eure Flüge!
 

Jan Hergeth

1419731
RG Frankfurt - Leitung
RG Frankfurt - Mentor
In weniger als 2h ist Stuttgart Donnerstag! Heute bietet sich ein Flug in den Norden besonders an ;)
 

Jan Hergeth

1419731
RG Frankfurt - Leitung
RG Frankfurt - Mentor
Heute ist wieder Stuttgart Donnerstag und damit die perfekte Möglichkeit, den heißen Tag im kühlen Kellercockpit ausklingen zu lassen :)
 

Jan Hergeth

1419731
RG Frankfurt - Leitung
RG Frankfurt - Mentor
Es ist wieder Stuttgart Donnerstag und unsere Lotsen freuen sich auf euren Besuch :)
 

Jan Hergeth

1419731
RG Frankfurt - Leitung
RG Frankfurt - Mentor
Es ist wieder Stuttgart Donnerstag in Verbindung mit Minors on Stage :) Schnappt euch die Flieger und genießt vollen ATC in EDDS und LSGG :)
 

Jan Hergeth

1419731
RG Frankfurt - Leitung
RG Frankfurt - Mentor
In weniger als 2 Minuten startet der Stuttgart Donnerstag! Wir sind voll besetzt und freuen uns auf Euren Besuch!
 

Jan Hergeth

1419731
RG Frankfurt - Leitung
RG Frankfurt - Mentor
Heute ist der letzte Stuttgart Donnerstag im August! Wir freuen uns auf Euren Besuch in EDDS :)
 

Jan Hergeth

1419731
RG Frankfurt - Leitung
RG Frankfurt - Mentor
In wenigen Minuten freuen wir uns beim Stuttgart Donnerstag wieder auf Euren Besuch. Schnappt euch die Flieger und auf nach Stuttgart!:)
 

Paul Hollmann

1450775
Administrator
Tech - Leitung
RG Frankfurt - Event
Seit 10 min ist wieder Stuttgart Donnerstag.
Sogar mit neuen schicken Banner:
 

Lukas Ewald

984980
Das Wetter könnte besser sein, aber die Lotsen stehen euch dennoch in gewohnter hoher Qualität in Stuttgart zur Seite:
Code:
TAF: EDDS 151100Z 1512/1612 01006KT 9999 BKN007 PROB30
TEMPO 1512/1514 4000 -DZ PROB30
TEMPO 1514/1518 BKN012
TEMPO 1600/1609 4000 -RADZ

Also schnappt euch den Rasenmäher, Hubschrauber oder natürlich den Airliner und kommt vorbei :)

Als Rennstrecke bietet sich mal wieder Hamburg an. Bspw. als EWG7NA (EDDS-EDDH N0433F320 OKIBA N851 RIMKI Z99 LOHRE UN851 ARNIX/N0446F360 UN851 KEMAD P605 NOLGO/0052) oder als TUI8801 (EDDH-EDDS N0423F230 IDEKO N850 KRH T128 BADSO/0059) (Quelle: https://edi-gla.co.uk)
 

Jan Hergeth

1419731
RG Frankfurt - Leitung
RG Frankfurt - Mentor

Heute ist wieder Stuttgart Donnerstag!
Bei klarem Himmel freuen wir uns auf euren Besuch!
EDDS 051100Z 0512/0612 02005KT CAVOK BECMG 0518/0520 VRB03KT PROB40
Vielleicht möchte der ein oder andere die Rennstrecke EDDS-->EDDH nutzen, um @Ben Osinski bei seinem heutigen APP-CPT zu unterstützen :)
Dort wird das Wetter - wie im Norden üblich - nicht ganz so schön wie bei uns im Ländle ;)
EDDH 051100Z 0512/0618 25010KT 9999 BKN040 BECMG 0520/0523 24005KT BKN012 TEMPO 0520/0610 3500 -DZRA BR BKN008 PROB30
 
Oben